createdAt,value
2018-07-14T00:01:21.157Z,75.84
2018-07-14T00:03:48.862Z,75.83
2018-07-14T00:06:16.537Z,75.97
2018-07-14T00:08:44.210Z,75.54
2018-07-14T00:11:11.915Z,75.13
2018-07-14T00:13:39.585Z,76.21
2018-07-14T00:16:07.327Z,76.47
2018-07-14T00:18:35.080Z,76.48
2018-07-14T00:21:02.779Z,76.32
2018-07-14T00:23:30.439Z,75.63
2018-07-14T00:26:00.128Z,75.60
2018-07-14T00:28:28.366Z,76.53
2018-07-14T00:30:56.278Z,76.49
2018-07-14T00:33:24.056Z,76.72
2018-07-14T00:35:51.839Z,78.18
2018-07-14T00:38:19.561Z,78.75
2018-07-14T00:40:47.301Z,78.10
2018-07-14T00:43:14.978Z,78.19
2018-07-14T00:45:42.676Z,76.01
2018-07-14T00:48:10.352Z,76.77
2018-07-14T00:50:37.973Z,76.26
2018-07-14T00:53:05.889Z,76.27
2018-07-14T00:55:33.571Z,77.27
2018-07-14T00:58:01.189Z,77.23
2018-07-14T01:00:28.858Z,77.99
2018-07-14T01:02:56.498Z,77.84
2018-07-14T01:05:24.168Z,78.89
2018-07-14T01:07:51.880Z,78.58
2018-07-14T01:10:19.569Z,79.23
2018-07-14T01:12:47.221Z,77.89
2018-07-14T01:15:14.824Z,78.40
2018-07-14T01:17:42.520Z,78.06
2018-07-14T01:20:10.244Z,78.60
2018-07-14T01:22:37.884Z,77.75
2018-07-14T01:25:05.755Z,78.90
2018-07-14T01:27:33.387Z,80.35
2018-07-14T01:30:00.989Z,80.24
2018-07-14T01:32:28.607Z,80.04
2018-07-14T01:34:56.418Z,78.92
2018-07-14T01:37:24.026Z,78.43
2018-07-14T01:39:51.634Z,78.36
2018-07-14T01:42:19.372Z,78.53
2018-07-14T01:44:47.007Z,77.42
2018-07-14T01:47:14.659Z,78.08
2018-07-14T01:49:42.301Z,79.08
2018-07-14T01:52:09.976Z,78.78
2018-07-14T01:54:37.624Z,79.00
2018-07-14T01:57:05.357Z,79.30
2018-07-14T01:59:33.037Z,78.26
2018-07-14T02:02:00.693Z,78.90
2018-07-14T02:04:28.380Z,79.04
2018-07-14T02:06:56.031Z,78.85
2018-07-14T02:09:23.708Z,78.62
2018-07-14T02:11:51.368Z,79.07
2018-07-14T02:14:19.019Z,78.45
2018-07-14T02:16:46.698Z,78.58
2018-07-14T02:19:14.409Z,79.06
2018-07-14T02:21:42.101Z,78.73
2018-07-14T02:24:09.779Z,79.00
2018-07-14T02:26:37.408Z,78.91
2018-07-14T02:29:05.084Z,79.22
2018-07-14T02:31:32.800Z,79.44
2018-07-14T02:34:00.446Z,79.48
2018-07-14T02:36:28.118Z,79.94
2018-07-14T02:38:55.767Z,80.84
2018-07-14T02:41:23.429Z,80.31
2018-07-14T02:43:51.140Z,81.20
2018-07-14T02:46:18.794Z,81.03
2018-07-14T02:48:46.402Z,80.50
2018-07-14T02:51:14.044Z,80.06
2018-07-14T02:53:41.700Z,79.83
2018-07-14T02:56:09.347Z,80.43
2018-07-14T02:58:36.981Z,81.63
2018-07-14T03:01:04.629Z,81.01
2018-07-14T03:03:32.310Z,80.11
2018-07-14T03:06:00.123Z,80.39
2018-07-14T03:08:27.813Z,80.29
2018-07-14T03:10:55.485Z,79.63
2018-07-14T03:13:23.216Z,80.11
2018-07-14T03:15:50.877Z,81.64
2018-07-14T03:18:18.585Z,81.99
2018-07-14T03:20:46.263Z,81.92
2018-07-14T03:23:13.900Z,81.82
2018-07-14T03:25:41.528Z,81.62
2018-07-14T03:28:09.217Z,81.31
2018-07-14T03:30:36.842Z,81.43
2018-07-14T03:33:04.587Z,81.48
2018-07-14T03:35:32.600Z,81.01
2018-07-14T03:38:00.272Z,80.92
2018-07-14T03:40:27.908Z,80.47
2018-07-14T03:42:55.598Z,79.69
2018-07-14T03:45:23.260Z,78.91
2018-07-14T03:47:50.913Z,77.79
2018-07-14T03:50:18.596Z,76.98
2018-07-14T03:52:46.238Z,75.52
2018-07-14T03:55:13.907Z,74.05
2018-07-14T03:57:41.556Z,72.27
2018-07-14T04:00:09.230Z,70.99
2018-07-14T04:02:36.884Z,70.49
2018-07-14T04:05:04.856Z,69.39
2018-07-14T04:07:32.736Z,67.28
2018-07-14T04:10:00.344Z,66.70
2018-07-14T04:12:27.988Z,66.43
2018-07-14T04:14:55.696Z,66.46
2018-07-14T04:17:23.336Z,66.08
2018-07-14T04:19:51.025Z,65.29
2018-07-14T04:22:18.710Z,64.72
2018-07-14T04:24:46.320Z,64.82
2018-07-14T04:27:14.011Z,63.56
2018-07-14T04:29:41.688Z,62.37
2018-07-14T04:32:09.372Z,61.31
2018-07-14T04:34:37.042Z,58.70
2018-07-14T04:37:04.714Z,58.05
2018-07-14T04:39:32.345Z,56.72
2018-07-14T04:42:00.009Z,57.06
2018-07-14T04:44:27.669Z,55.83
2018-07-14T04:46:55.310Z,53.22
2018-07-14T04:49:23.052Z,53.42
2018-07-14T04:51:50.645Z,52.86
2018-07-14T04:54:18.231Z,53.02
2018-07-14T04:56:45.880Z,51.97
2018-07-14T04:59:13.541Z,50.21
2018-07-14T05:01:41.186Z,50.64
2018-07-14T05:04:08.959Z,49.40
2018-07-14T05:06:36.652Z,49.88
2018-07-14T05:09:04.888Z,48.85
2018-07-14T05:11:32.563Z,49.33
2018-07-14T05:14:00.241Z,47.10
2018-07-14T05:16:27.949Z,47.46
2018-07-14T05:18:55.608Z,46.51
2018-07-14T05:21:23.267Z,45.71
2018-07-14T05:23:50.950Z,43.54
2018-07-14T05:26:18.944Z,42.85
2018-07-14T05:28:46.607Z,41.17
2018-07-14T05:31:14.299Z,43.27
2018-07-14T05:33:41.996Z,41.65
2018-07-14T05:36:09.718Z,41.64
2018-07-14T05:38:37.439Z,42.20
2018-07-14T05:41:05.229Z,40.72
2018-07-14T05:43:32.957Z,40.66
2018-07-14T05:46:00.607Z,40.16
2018-07-14T05:48:28.303Z,40.39
2018-07-14T05:50:56.011Z,38.25
2018-07-14T05:53:23.686Z,38.46
2018-07-14T05:55:51.361Z,39.23
2018-07-14T05:58:19.067Z,38.39
2018-07-14T06:00:46.719Z,36.99
2018-07-14T06:03:14.424Z,33.87
2018-07-14T06:05:42.149Z,36.05
2018-07-14T06:08:09.749Z,34.09
2018-07-14T06:10:37.390Z,34.98
2018-07-14T06:13:05.298Z,35.67
2018-07-14T06:15:32.992Z,32.67
2018-07-14T06:18:00.675Z,34.96
2018-07-14T06:20:28.333Z,34.96
2018-07-14T06:22:56.083Z,35.07
2018-07-14T06:25:23.714Z,32.31
2018-07-14T06:27:51.356Z,33.12
2018-07-14T06:30:19.084Z,34.00
2018-07-14T06:32:46.769Z,33.45
2018-07-14T06:35:14.573Z,31.34
2018-07-14T06:37:42.360Z,31.50
2018-07-14T06:40:10.068Z,30.18
2018-07-14T06:42:37.847Z,31.27
2018-07-14T06:45:05.717Z,32.14
2018-07-14T06:47:33.480Z,29.74
2018-07-14T06:50:01.200Z,30.41
2018-07-14T06:52:28.987Z,30.72
2018-07-14T06:54:57.035Z,30.57
2018-07-14T06:57:24.696Z,30.25
2018-07-14T06:59:52.354Z,30.13
2018-07-14T07:02:20.031Z,30.81
2018-07-14T07:04:48.117Z,30.59
2018-07-14T07:07:15.955Z,28.06
2018-07-14T07:09:43.669Z,29.89
2018-07-14T07:12:11.386Z,29.34
2018-07-14T07:14:39.169Z,30.69
2018-07-14T07:17:06.831Z,29.90
2018-07-14T07:19:34.471Z,29.83
2018-07-14T07:22:02.097Z,31.37
2018-07-14T07:24:29.765Z,29.17
2018-07-14T07:26:57.444Z,29.95
2018-07-14T07:29:25.089Z,28.91
2018-07-14T07:31:52.822Z,27.54
2018-07-14T07:34:20.551Z,27.51
2018-07-14T07:36:48.257Z,27.19
2018-07-14T07:39:15.965Z,29.98
2018-07-14T07:41:43.708Z,27.93
2018-07-14T07:44:11.467Z,27.44
2018-07-14T07:46:39.101Z,26.64
2018-07-14T07:49:06.798Z,27.26
2018-07-14T07:51:34.434Z,28.46
2018-07-14T07:54:02.088Z,27.65
2018-07-14T07:56:29.767Z,28.57
2018-07-14T07:58:57.408Z,26.20
2018-07-14T08:01:25.045Z,27.46
2018-07-14T08:03:52.757Z,25.40
2018-07-14T08:06:20.477Z,25.92
2018-07-14T08:08:48.184Z,28.00
2018-07-14T08:11:15.886Z,28.71
2018-07-14T08:13:43.530Z,28.50
2018-07-14T08:16:11.344Z,27.34
2018-07-14T08:18:38.991Z,26.56
2018-07-14T08:21:06.756Z,25.17
2018-07-14T08:23:34.460Z,26.93
2018-07-14T08:26:02.230Z,26.75
2018-07-14T08:28:29.931Z,26.90
2018-07-14T08:30:57.647Z,26.30
2018-07-14T08:33:25.290Z,27.09
2018-07-14T08:35:53.007Z,25.52
2018-07-14T08:38:20.836Z,26.92
2018-07-14T08:40:48.547Z,25.63
2018-07-14T08:43:16.217Z,26.25
2018-07-14T08:45:43.897Z,26.52
2018-07-14T08:48:11.577Z,24.26
2018-07-14T08:50:39.246Z,25.52
2018-07-14T08:53:06.923Z,25.89
2018-07-14T08:55:34.591Z,25.25
2018-07-14T08:58:02.268Z,24.85
2018-07-14T09:00:29.906Z,25.94
2018-07-14T09:02:57.527Z,26.54
2018-07-14T09:05:25.200Z,27.33
2018-07-14T09:07:53.022Z,27.39
2018-07-14T09:10:20.673Z,25.68
2018-07-14T09:12:48.320Z,25.13
2018-07-14T09:15:16.045Z,26.73
2018-07-14T09:17:43.720Z,25.72
2018-07-14T09:20:11.402Z,26.18
2018-07-14T09:22:39.114Z,27.78
2018-07-14T09:25:06.791Z,25.67
2018-07-14T09:27:34.472Z,27.21
2018-07-14T09:30:02.202Z,26.54
2018-07-14T09:32:29.963Z,25.54
2018-07-14T09:34:57.658Z,25.70
2018-07-14T09:37:25.360Z,25.92
2018-07-14T09:39:53.060Z,25.70
2018-07-14T09:42:20.768Z,25.66
2018-07-14T09:44:48.446Z,25.30
2018-07-14T09:47:16.188Z,24.95
2018-07-14T09:49:43.913Z,25.34
2018-07-14T09:52:11.576Z,24.77
2018-07-14T09:54:39.267Z,25.01
2018-07-14T09:57:07.364Z,23.90
2018-07-14T09:59:35.054Z,25.73
2018-07-14T10:02:02.758Z,23.86
2018-07-14T10:04:30.542Z,24.45
2018-07-14T10:06:58.218Z,25.02
2018-07-14T10:09:25.942Z,25.07
2018-07-14T10:11:53.591Z,24.38
2018-07-14T10:14:21.235Z,24.25
2018-07-14T10:16:48.922Z,24.92
2018-07-14T10:19:16.623Z,25.97
2018-07-14T10:21:44.253Z,26.46
2018-07-14T10:24:12.114Z,25.73
2018-07-14T10:26:39.830Z,25.81
2018-07-14T10:29:07.623Z,25.63
2018-07-14T10:31:35.246Z,25.94
2018-07-14T10:34:03.122Z,26.21
2018-07-14T10:36:30.736Z,25.21
2018-07-14T10:38:58.437Z,24.85
2018-07-14T10:41:26.287Z,25.28
2018-07-14T10:43:54.021Z,22.76
2018-07-14T10:46:21.702Z,23.38
2018-07-14T10:48:49.380Z,23.96
2018-07-14T10:51:17.101Z,23.37
2018-07-14T10:53:44.871Z,25.18
2018-07-14T10:56:12.631Z,25.67
2018-07-14T10:58:40.819Z,27.04
2018-07-14T11:01:08.492Z,25.10
2018-07-14T11:03:36.210Z,25.46
2018-07-14T11:06:03.918Z,25.38
2018-07-14T11:08:31.588Z,26.46
2018-07-14T11:10:59.286Z,25.52
2018-07-14T11:13:27.077Z,26.84
2018-07-14T11:15:54.773Z,27.37
2018-07-14T11:18:22.441Z,27.06
2018-07-14T11:20:50.160Z,27.42
2018-07-14T11:23:17.905Z,27.05
2018-07-14T11:25:45.585Z,27.36
2018-07-14T11:28:13.280Z,27.01
2018-07-14T11:30:41.009Z,27.92
2018-07-14T11:33:08.692Z,28.42
2018-07-14T11:35:36.332Z,27.57
2018-07-14T11:38:04.001Z,27.42
2018-07-14T11:40:31.630Z,27.66
2018-07-14T11:42:59.268Z,27.94
2018-07-14T11:45:27.027Z,27.85
2018-07-14T11:47:54.735Z,27.75
2018-07-14T11:50:22.489Z,27.98
2018-07-14T11:52:50.359Z,26.75
2018-07-14T11:55:18.073Z,27.58
2018-07-14T11:57:45.804Z,26.74
2018-07-14T12:00:13.477Z,27.60
2018-07-14T12:02:41.248Z,27.13
2018-07-14T12:05:08.980Z,26.68
2018-07-14T12:07:36.750Z,26.44
2018-07-14T12:10:04.748Z,26.78
2018-07-14T12:12:32.408Z,25.31
2018-07-14T12:15:00.105Z,27.45
2018-07-14T12:17:27.895Z,27.80
2018-07-14T12:19:55.601Z,28.27
2018-07-14T12:22:23.396Z,29.58
2018-07-14T12:24:51.049Z,29.83
2018-07-14T12:27:18.784Z,30.26
2018-07-14T12:29:46.565Z,30.04
2018-07-14T12:32:14.221Z,31.42
2018-07-14T12:34:41.902Z,31.58
2018-07-14T12:37:09.616Z,32.32
2018-07-14T12:39:37.289Z,31.71
2018-07-14T12:42:05.126Z,32.97
2018-07-14T12:44:33.053Z,33.09
2018-07-14T12:47:01.535Z,32.81
2018-07-14T12:49:29.189Z,32.31
2018-07-14T12:51:56.853Z,32.63
2018-07-14T12:54:24.627Z,34.70
2018-07-14T12:56:52.295Z,34.02
2018-07-14T12:59:20.002Z,34.51
2018-07-14T13:01:47.713Z,35.02
2018-07-14T13:04:15.432Z,33.85
2018-07-14T13:06:43.107Z,33.20
2018-07-14T13:09:10.791Z,32.93
2018-07-14T13:11:38.572Z,32.36
2018-07-14T13:14:06.329Z,32.48
2018-07-14T13:16:34.371Z,34.02
2018-07-14T13:19:02.611Z,33.77
2018-07-14T13:21:30.270Z,34.01
2018-07-14T13:23:57.965Z,33.73
2018-07-14T13:26:25.685Z,33.22
2018-07-14T13:28:53.309Z,33.63
2018-07-14T13:31:21.046Z,32.44
2018-07-14T13:33:48.679Z,31.59
2018-07-14T13:36:16.362Z,31.82
2018-07-14T13:38:51.265Z,32.92
2018-07-14T13:41:11.745Z,32.71
2018-07-14T13:43:39.405Z,32.96
2018-07-14T13:46:07.021Z,33.01
2018-07-14T13:48:34.963Z,33.41
2018-07-14T13:51:02.682Z,32.96
2018-07-14T13:53:30.412Z,32.76
2018-07-14T13:55:58.161Z,32.52
2018-07-14T13:58:25.968Z,32.09
2018-07-14T14:00:53.608Z,31.37
2018-07-14T14:03:21.358Z,32.37
2018-07-14T14:05:49.014Z,31.52
2018-07-14T14:08:16.699Z,31.45
2018-07-14T14:10:44.446Z,31.50
2018-07-14T14:13:12.167Z,32.01
2018-07-14T14:15:40.001Z,31.84
2018-07-14T14:18:07.749Z,32.16
2018-07-14T14:20:35.546Z,32.85
2018-07-14T14:23:03.277Z,32.59
2018-07-14T14:25:30.882Z,32.39
2018-07-14T14:27:58.550Z,33.60
2018-07-14T14:30:26.217Z,32.81
2018-07-14T14:32:53.975Z,32.61
2018-07-14T14:35:21.713Z,33.05
2018-07-14T14:37:49.399Z,32.97
2018-07-14T14:40:17.163Z,32.68
2018-07-14T14:42:44.925Z,32.25
2018-07-14T14:45:12.643Z,31.83
2018-07-14T14:47:40.392Z,31.86
2018-07-14T14:50:08.157Z,33.13
2018-07-14T14:52:35.808Z,32.50
2018-07-14T14:55:03.648Z,32.98
2018-07-14T14:57:31.388Z,32.99
2018-07-14T15:00:00.005Z,33.95
2018-07-14T15:02:27.739Z,33.95
2018-07-14T15:04:55.401Z,33.81
2018-07-14T15:07:23.132Z,34.09
2018-07-14T15:09:50.893Z,34.57
2018-07-14T15:12:18.564Z,35.84
2018-07-14T15:14:46.258Z,35.67
2018-07-14T15:17:13.912Z,35.23
2018-07-14T15:19:41.606Z,35.07
2018-07-14T15:22:09.334Z,35.17
2018-07-14T15:24:37.004Z,35.48
2018-07-14T15:27:04.746Z,35.23
2018-07-14T15:29:32.404Z,35.42
2018-07-14T15:32:00.157Z,36.04
2018-07-14T15:34:27.920Z,36.64
2018-07-14T15:36:55.731Z,36.33
2018-07-14T15:39:23.481Z,36.93
2018-07-14T15:41:51.156Z,37.38
2018-07-14T15:44:18.864Z,38.32
2018-07-14T15:46:46.567Z,37.16
2018-07-14T15:49:14.578Z,37.56
2018-07-14T15:51:42.356Z,37.60
2018-07-14T15:54:10.089Z,37.96
2018-07-14T15:56:37.830Z,37.81
2018-07-14T15:59:05.545Z,37.96
2018-07-14T16:01:33.344Z,37.83
2018-07-14T16:04:01.036Z,38.16
2018-07-14T16:06:28.801Z,38.09
2018-07-14T16:08:56.536Z,38.15
2018-07-14T16:11:24.268Z,38.71
2018-07-14T16:13:51.973Z,38.71
2018-07-14T16:16:19.721Z,38.54
2018-07-14T16:18:47.542Z,39.32
2018-07-14T16:21:15.250Z,38.68
2018-07-14T16:23:42.973Z,38.94
2018-07-14T16:26:10.631Z,39.19
2018-07-14T16:28:38.324Z,39.90
2018-07-14T16:31:06.021Z,39.72
2018-07-14T16:33:34.585Z,40.36
2018-07-14T16:36:02.557Z,39.83
2018-07-14T16:38:30.373Z,40.21
2018-07-14T16:40:58.212Z,40.54
2018-07-14T16:43:25.957Z,40.58
2018-07-14T16:45:53.667Z,40.44
2018-07-14T16:48:21.347Z,40.58
2018-07-14T16:50:49.117Z,41.48
2018-07-14T16:53:16.806Z,41.42
2018-07-14T16:55:44.523Z,41.37
2018-07-14T16:58:12.269Z,41.21
2018-07-14T17:00:40.073Z,41.50
2018-07-14T17:03:07.839Z,42.14
2018-07-14T17:05:35.517Z,42.51
2018-07-14T17:08:03.206Z,42.08
2018-07-14T17:10:31.244Z,42.68
2018-07-14T17:12:58.907Z,42.66
2018-07-14T17:15:27.589Z,43.33
2018-07-14T17:17:55.289Z,43.14
2018-07-14T17:20:22.994Z,42.83
2018-07-14T17:22:50.717Z,43.65
2018-07-14T17:25:18.459Z,43.70
2018-07-14T17:27:46.242Z,43.60
2018-07-14T17:30:13.960Z,44.06
2018-07-14T17:32:41.646Z,44.28
2018-07-14T17:35:09.476Z,43.81
2018-07-14T17:37:37.140Z,44.37
2018-07-14T17:40:05.021Z,44.28
2018-07-14T17:42:32.733Z,44.39
2018-07-14T17:45:00.431Z,43.87
2018-07-14T17:47:28.153Z,44.53
2018-07-14T17:49:55.818Z,44.46
2018-07-14T17:52:23.567Z,44.68
2018-07-14T17:54:51.286Z,44.59
2018-07-14T17:57:19.024Z,44.87
2018-07-14T17:59:46.718Z,45.66
2018-07-14T18:02:14.488Z,45.41
2018-07-14T18:04:42.381Z,44.93
2018-07-14T18:07:10.074Z,45.71
2018-07-14T18:09:37.763Z,45.50
2018-07-14T18:12:05.501Z,45.75
2018-07-14T18:14:33.203Z,45.39
2018-07-14T18:17:00.905Z,45.92
2018-07-14T18:19:28.656Z,46.22
2018-07-14T18:21:56.392Z,46.30
2018-07-14T18:24:24.115Z,45.67
2018-07-14T18:26:51.865Z,46.58
2018-07-14T18:29:19.614Z,46.02
2018-07-14T18:31:47.356Z,46.59
2018-07-14T18:34:15.471Z,46.29
2018-07-14T18:36:43.825Z,46.22
2018-07-14T18:39:11.548Z,46.83
2018-07-14T18:41:39.267Z,47.18
2018-07-14T18:44:06.970Z,47.00
2018-07-14T18:46:35.117Z,46.97
2018-07-14T18:49:02.856Z,47.53
2018-07-14T18:51:30.674Z,47.68
2018-07-14T18:53:58.664Z,47.96
2018-07-14T18:56:26.775Z,48.43
2018-07-14T18:58:54.593Z,48.46
2018-07-14T19:01:22.314Z,48.57
2018-07-14T19:03:50.246Z,48.85
2018-07-14T19:06:17.946Z,48.61
2018-07-14T19:08:45.660Z,48.69
2018-07-14T19:11:13.368Z,48.68
2018-07-14T19:13:41.081Z,48.98
2018-07-14T19:16:08.742Z,49.46
2018-07-14T19:18:36.455Z,49.41
2018-07-14T19:21:04.495Z,49.49
2018-07-14T19:23:32.286Z,49.70
2018-07-14T19:26:00.091Z,50.54
2018-07-14T19:28:27.757Z,50.16
2018-07-14T19:30:55.538Z,50.78
2018-07-14T19:33:23.285Z,51.30
2018-07-14T19:35:51.525Z,51.17
2018-07-14T19:38:19.218Z,51.04
2018-07-14T19:40:46.934Z,51.67
2018-07-14T19:43:14.641Z,51.62
2018-07-14T19:45:42.372Z,52.12
2018-07-14T19:48:10.132Z,52.34
2018-07-14T19:50:37.810Z,53.39
2018-07-14T19:53:05.536Z,52.70
2018-07-14T19:55:35.665Z,53.18
2018-07-14T19:58:00.981Z,52.95
2018-07-14T20:00:28.733Z,53.21
2018-07-14T20:02:56.441Z,54.44
2018-07-14T20:05:24.308Z,54.83
2018-07-14T20:07:52.009Z,55.48
2018-07-14T20:10:19.716Z,55.37
2018-07-14T20:12:47.459Z,55.46
2018-07-14T20:15:15.286Z,56.13
2018-07-14T20:17:42.962Z,56.25
2018-07-14T20:20:10.856Z,57.11
2018-07-14T20:22:39.038Z,58.34
2018-07-14T20:25:06.805Z,57.84
2018-07-14T20:27:34.544Z,58.14
2018-07-14T20:30:02.341Z,58.32
2018-07-14T20:32:29.994Z,58.57
2018-07-14T20:34:57.712Z,58.72
2018-07-14T20:37:25.445Z,58.55
2018-07-14T20:39:53.212Z,58.86
2018-07-14T20:42:20.890Z,58.98
2018-07-14T20:44:48.622Z,58.59
2018-07-14T20:47:16.446Z,59.01
2018-07-14T20:49:44.170Z,59.50
2018-07-14T20:52:11.862Z,58.56
2018-07-14T20:54:39.704Z,59.63
2018-07-14T20:57:07.390Z,59.30
2018-07-14T20:59:35.054Z,61.07
2018-07-14T21:02:02.773Z,61.13
2018-07-14T21:04:30.494Z,62.03
2018-07-14T21:06:58.215Z,62.66
2018-07-14T21:09:25.912Z,62.32
2018-07-14T21:11:53.557Z,61.79
2018-07-14T21:14:21.341Z,62.08
2018-07-14T21:16:48.985Z,62.64
2018-07-14T21:19:16.813Z,63.35
2018-07-14T21:21:44.485Z,63.18
2018-07-14T21:24:12.167Z,63.35
2018-07-14T21:26:39.889Z,63.34
2018-07-14T21:29:07.601Z,63.40
2018-07-14T21:31:35.273Z,64.89
2018-07-14T21:34:02.937Z,65.60
2018-07-14T21:36:30.603Z,65.53
2018-07-14T21:38:58.281Z,66.87
2018-07-14T21:41:25.957Z,65.89
2018-07-14T21:43:54.645Z,67.12
2018-07-14T21:46:22.310Z,67.37
2018-07-14T21:48:50.018Z,67.89
2018-07-14T21:51:17.720Z,68.77
2018-07-14T21:53:45.411Z,68.68
2018-07-14T21:56:13.106Z,68.32
2018-07-14T21:58:40.763Z,67.72
2018-07-14T22:01:14.082Z,68.60
2018-07-14T22:03:41.876Z,69.37
2018-07-14T22:06:09.567Z,70.23
2018-07-14T22:08:37.231Z,70.61
2018-07-14T22:11:04.915Z,69.84
2018-07-14T22:13:32.673Z,70.33
2018-07-14T22:16:00.358Z,70.08
2018-07-14T22:18:28.026Z,69.80
2018-07-14T22:20:55.744Z,70.18
2018-07-14T22:23:23.425Z,69.15
2018-07-14T22:25:51.124Z,70.23
2018-07-14T22:28:18.790Z,70.47
2018-07-14T22:30:46.602Z,70.37
2018-07-14T22:33:14.324Z,70.75
2018-07-14T22:35:42.006Z,70.95
2018-07-14T22:38:09.716Z,70.43
2018-07-14T22:40:37.399Z,71.44
2018-07-14T22:43:05.393Z,72.11
2018-07-14T22:45:33.034Z,72.24
2018-07-14T22:48:00.722Z,71.77
2018-07-14T22:50:28.443Z,71.76
2018-07-14T22:52:56.131Z,71.72
2018-07-14T22:55:23.756Z,72.00
2018-07-14T22:57:51.386Z,71.50
2018-07-14T23:00:19.071Z,72.10
2018-07-14T23:02:46.694Z,71.58
2018-07-14T23:05:14.329Z,71.99
2018-07-14T23:07:41.981Z,72.90
2018-07-14T23:10:09.694Z,74.15
2018-07-14T23:12:37.346Z,73.46
2018-07-14T23:15:05.093Z,73.06
2018-07-14T23:17:32.776Z,73.09
2018-07-14T23:20:00.434Z,73.06
2018-07-14T23:22:28.168Z,74.03
2018-07-14T23:24:55.851Z,73.20
2018-07-14T23:27:23.912Z,73.52
2018-07-14T23:29:51.729Z,73.02
2018-07-14T23:32:19.414Z,73.73
2018-07-14T23:34:47.097Z,73.70
2018-07-14T23:37:14.848Z,72.86
2018-07-14T23:39:42.540Z,73.01
2018-07-14T23:42:10.146Z,73.38
2018-07-14T23:44:37.816Z,73.71
2018-07-14T23:47:05.547Z,73.38
2018-07-14T23:49:33.187Z,75.07
2018-07-14T23:52:00.837Z,74.93
2018-07-14T23:54:28.500Z,75.86
2018-07-14T23:56:56.114Z,74.71
2018-07-14T23:59:23.783Z,74.95
